sensor_id;sensor_type;location;lat;lon;timestamp;temperature;humidity
7014;DHT22;3547;50.774;12.918;2024-02-23T00:01:18;10.90;1.00
7014;DHT22;3547;50.774;12.918;2024-02-23T00:03:44;10.90;1.00
7014;DHT22;3547;50.774;12.918;2024-02-23T00:06:10;10.80;1.00
7014;DHT22;3547;50.774;12.918;2024-02-23T00:08:38;10.80;1.00
7014;DHT22;3547;50.774;12.918;2024-02-23T00:11:04;10.80;1.00
7014;DHT22;3547;50.774;12.918;2024-02-23T00:13:54;10.70;1.00
7014;DHT22;3547;50.774;12.918;2024-02-23T00:16:20;10.70;1.00
7014;DHT22;3547;50.774;12.918;2024-02-23T00:18:49;10.60;1.00
7014;DHT22;3547;50.774;12.918;2024-02-23T00:21:15;10.60;1.00
7014;DHT22;3547;50.774;12.918;2024-02-23T00:23:41;10.60;1.00
7014;DHT22;3547;50.774;12.918;2024-02-23T00:26:08;10.50;1.00
7014;DHT22;3547;50.774;12.918;2024-02-23T00:28:34;10.50;1.00
7014;DHT22;3547;50.774;12.918;2024-02-23T00:31:00;10.60;1.00
7014;DHT22;3547;50.774;12.918;2024-02-23T00:33:28;10.60;1.00
7014;DHT22;3547;50.774;12.918;2024-02-23T00:35:54;10.60;1.00
7014;DHT22;3547;50.774;12.918;2024-02-23T00:38:21;10.60;1.00
7014;DHT22;3547;50.774;12.918;2024-02-23T00:40:47;10.60;1.00
7014;DHT22;3547;50.774;12.918;2024-02-23T00:43:13;10.50;1.00
7014;DHT22;3547;50.774;12.918;2024-02-23T00:45:39;10.50;1.00
7014;DHT22;3547;50.774;12.918;2024-02-23T00:48:05;10.50;1.00
7014;DHT22;3547;50.774;12.918;2024-02-23T00:50:32;10.40;1.00
7014;DHT22;3547;50.774;12.918;2024-02-23T00:52:58;10.30;1.00
7014;DHT22;3547;50.774;12.918;2024-02-23T00:55:24;10.30;1.00
7014;DHT22;3547;50.774;12.918;2024-02-23T00:57:52;10.30;1.00
7014;DHT22;3547;50.774;12.918;2024-02-23T01:00:19;10.30;1.00
7014;DHT22;3547;50.774;12.918;2024-02-23T01:02:45;10.30;1.00
7014;DHT22;3547;50.774;12.918;2024-02-23T01:05:11;10.30;1.00
7014;DHT22;3547;50.774;12.918;2024-02-23T01:07:37;10.20;1.00
7014;DHT22;3547;50.774;12.918;2024-02-23T01:10:03;10.20;1.00
7014;DHT22;3547;50.774;12.918;2024-02-23T01:12:30;10.20;1.00
7014;DHT22;3547;50.774;12.918;2024-02-23T01:18:18;10.10;1.00
7014;DHT22;3547;50.774;12.918;2024-02-23T01:20:44;10.00;1.00
7014;DHT22;3547;50.774;12.918;2024-02-23T01:23:10;10.10;1.00
7014;DHT22;3547;50.774;12.918;2024-02-23T01:25:37;10.00;1.00
7014;DHT22;3547;50.774;12.918;2024-02-23T01:28:04;10.00;1.00
7014;DHT22;3547;50.774;12.918;2024-02-23T01:30:30;10.00;1.00
7014;DHT22;3547;50.774;12.918;2024-02-23T01:32:56;9.90;1.00
7014;DHT22;3547;50.774;12.918;2024-02-23T01:35:23;9.90;1.00
7014;DHT22;3547;50.774;12.918;2024-02-23T01:37:51;9.80;1.00
7014;DHT22;3547;50.774;12.918;2024-02-23T01:40:18;9.80;1.00
7014;DHT22;3547;50.774;12.918;2024-02-23T01:42:45;9.80;1.00
7014;DHT22;3547;50.774;12.918;2024-02-23T01:45:11;9.70;1.00
7014;DHT22;3547;50.774;12.918;2024-02-23T01:47:39;9.70;1.00
7014;DHT22;3547;50.774;12.918;2024-02-23T01:50:06;9.60;1.00
7014;DHT22;3547;50.774;12.918;2024-02-23T01:52:35;9.60;1.00
7014;DHT22;3547;50.774;12.918;2024-02-23T01:55:01;9.60;1.00
7014;DHT22;3547;50.774;12.918;2024-02-23T01:57:28;9.60;1.00
7014;DHT22;3547;50.774;12.918;2024-02-23T01:59:55;9.50;1.00
7014;DHT22;3547;50.774;12.918;2024-02-23T02:02:21;9.40;1.00
7014;DHT22;3547;50.774;12.918;2024-02-23T02:04:47;9.40;1.00
7014;DHT22;3547;50.774;12.918;2024-02-23T02:07:14;9.40;1.00
7014;DHT22;3547;50.774;12.918;2024-02-23T02:09:40;9.30;1.00
7014;DHT22;3547;50.774;12.918;2024-02-23T02:12:06;9.30;1.00
7014;DHT22;3547;50.774;12.918;2024-02-23T02:14:32;9.30;1.00
7014;DHT22;3547;50.774;12.918;2024-02-23T02:16:59;9.20;1.00
7014;DHT22;3547;50.774;12.918;2024-02-23T02:19:25;9.20;1.00
7014;DHT22;3547;50.774;12.918;2024-02-23T02:21:51;9.10;1.00
7014;DHT22;3547;50.774;12.918;2024-02-23T02:24:19;9.00;1.00
7014;DHT22;3547;50.774;12.918;2024-02-23T02:26:46;9.00;1.00
7014;DHT22;3547;50.774;12.918;2024-02-23T02:29:16;8.90;1.00
7014;DHT22;3547;50.774;12.918;2024-02-23T02:31:42;8.90;1.00
7014;DHT22;3547;50.774;12.918;2024-02-23T02:34:08;8.90;1.00
7014;DHT22;3547;50.774;12.918;2024-02-23T02:36:38;8.90;1.00
7014;DHT22;3547;50.774;12.918;2024-02-23T02:39:04;8.90;1.00
7014;DHT22;3547;50.774;12.918;2024-02-23T02:41:31;8.90;1.00
7014;DHT22;3547;50.774;12.918;2024-02-23T02:47:19;8.90;1.00
7014;DHT22;3547;50.774;12.918;2024-02-23T02:49:45;8.80;1.00
7014;DHT22;3547;50.774;12.918;2024-02-23T02:52:15;8.80;1.00
7014;DHT22;3547;50.774;12.918;2024-02-23T02:54:42;8.80;1.00
7014;DHT22;3547;50.774;12.918;2024-02-23T02:57:08;8.80;1.00
7014;DHT22;3547;50.774;12.918;2024-02-23T02:59:35;8.70;1.00
7014;DHT22;3547;50.774;12.918;2024-02-23T03:02:04;8.70;1.00
7014;DHT22;3547;50.774;12.918;2024-02-23T03:04:30;8.70;1.00
7014;DHT22;3547;50.774;12.918;2024-02-23T03:06:59;8.70;1.00
7014;DHT22;3547;50.774;12.918;2024-02-23T03:09:25;8.60;1.00
7014;DHT22;3547;50.774;12.918;2024-02-23T03:11:52;8.40;1.00
7014;DHT22;3547;50.774;12.918;2024-02-23T03:14:18;8.30;1.00
7014;DHT22;3547;50.774;12.918;2024-02-23T03:16:46;8.20;1.00
7014;DHT22;3547;50.774;12.918;2024-02-23T03:19:15;8.10;1.00
7014;DHT22;3547;50.774;12.918;2024-02-23T03:21:42;8.00;1.00
7014;DHT22;3547;50.774;12.918;2024-02-23T03:24:08;8.00;1.00
7014;DHT22;3547;50.774;12.918;2024-02-23T03:26:34;7.90;1.00
7014;DHT22;3547;50.774;12.918;2024-02-23T03:29:00;7.80;1.00
7014;DHT22;3547;50.774;12.918;2024-02-23T03:31:26;7.80;1.00
7014;DHT22;3547;50.774;12.918;2024-02-23T03:33:55;7.90;1.00
7014;DHT22;3547;50.774;12.918;2024-02-23T03:36:22;7.90;1.00
7014;DHT22;3547;50.774;12.918;2024-02-23T03:38:48;7.80;1.00
7014;DHT22;3547;50.774;12.918;2024-02-23T03:41:14;7.80;1.00
7014;DHT22;3547;50.774;12.918;2024-02-23T03:43:40;7.70;1.00
7014;DHT22;3547;50.774;12.918;2024-02-23T03:46:07;7.60;1.00
7014;DHT22;3547;50.774;12.918;2024-02-23T03:48:33;7.50;1.00
7014;DHT22;3547;50.774;12.918;2024-02-23T03:51:00;7.40;1.00
7014;DHT22;3547;50.774;12.918;2024-02-23T03:53:29;7.30;1.00
7014;DHT22;3547;50.774;12.918;2024-02-23T03:55:56;7.20;1.00
7014;DHT22;3547;50.774;12.918;2024-02-23T03:58:23;7.20;1.00
7014;DHT22;3547;50.774;12.918;2024-02-23T04:00:49;7.20;1.00
7014;DHT22;3547;50.774;12.918;2024-02-23T04:03:15;7.10;1.00
7014;DHT22;3547;50.774;12.918;2024-02-23T04:05:41;7.10;1.00
7014;DHT22;3547;50.774;12.918;2024-02-23T04:08:07;7.00;1.00
7014;DHT22;3547;50.774;12.918;2024-02-23T04:10:34;7.00;1.00
7014;DHT22;3547;50.774;12.918;2024-02-23T04:13:00;6.90;1.00
7014;DHT22;3547;50.774;12.918;2024-02-23T04:15:27;6.90;1.00
7014;DHT22;3547;50.774;12.918;2024-02-23T04:17:53;6.80;1.00
7014;DHT22;3547;50.774;12.918;2024-02-23T04:20:19;6.80;1.00
7014;DHT22;3547;50.774;12.918;2024-02-23T04:22:45;6.70;1.00
7014;DHT22;3547;50.774;12.918;2024-02-23T04:25:12;6.70;1.00
7014;DHT22;3547;50.774;12.918;2024-02-23T04:27:38;6.60;1.00
7014;DHT22;3547;50.774;12.918;2024-02-23T04:30:05;6.50;1.00
7014;DHT22;3547;50.774;12.918;2024-02-23T04:32:31;6.60;1.00
7014;DHT22;3547;50.774;12.918;2024-02-23T04:34:58;6.50;1.00
7014;DHT22;3547;50.774;12.918;2024-02-23T04:37:24;6.50;1.00
7014;DHT22;3547;50.774;12.918;2024-02-23T04:39:52;6.50;1.00
7014;DHT22;3547;50.774;12.918;2024-02-23T04:42:19;6.60;1.00
7014;DHT22;3547;50.774;12.918;2024-02-23T04:44:45;6.50;1.00
7014;DHT22;3547;50.774;12.918;2024-02-23T04:47:11;6.50;1.00
7014;DHT22;3547;50.774;12.918;2024-02-23T04:49:38;6.50;1.00
7014;DHT22;3547;50.774;12.918;2024-02-23T04:52:05;6.50;1.00
7014;DHT22;3547;50.774;12.918;2024-02-23T04:54:32;6.50;1.00
7014;DHT22;3547;50.774;12.918;2024-02-23T04:56:58;6.50;1.00
7014;DHT22;3547;50.774;12.918;2024-02-23T04:59:24;6.40;1.00
7014;DHT22;3547;50.774;12.918;2024-02-23T05:01:50;6.40;1.00
7014;DHT22;3547;50.774;12.918;2024-02-23T05:04:17;6.40;1.00
7014;DHT22;3547;50.774;12.918;2024-02-23T05:06:43;6.40;1.00
7014;DHT22;3547;50.774;12.918;2024-02-23T05:09:09;6.30;1.00
7014;DHT22;3547;50.774;12.918;2024-02-23T05:11:35;6.30;1.00
7014;DHT22;3547;50.774;12.918;2024-02-23T05:14:01;6.30;1.00
7014;DHT22;3547;50.774;12.918;2024-02-23T05:16:28;6.20;1.00
7014;DHT22;3547;50.774;12.918;2024-02-23T05:18:54;6.20;1.00
7014;DHT22;3547;50.774;12.918;2024-02-23T05:21:20;6.10;1.00
7014;DHT22;3547;50.774;12.918;2024-02-23T05:23:46;6.00;1.00
7014;DHT22;3547;50.774;12.918;2024-02-23T05:26:12;6.00;1.00
7014;DHT22;3547;50.774;12.918;2024-02-23T05:28:38;6.00;1.00
7014;DHT22;3547;50.774;12.918;2024-02-23T05:31:04;6.00;1.00
7014;DHT22;3547;50.774;12.918;2024-02-23T05:33:30;6.00;1.00
7014;DHT22;3547;50.774;12.918;2024-02-23T05:35:57;5.90;1.00
7014;DHT22;3547;50.774;12.918;2024-02-23T05:38:23;6.00;1.00
7014;DHT22;3547;50.774;12.918;2024-02-23T05:40:49;6.00;1.00
7014;DHT22;3547;50.774;12.918;2024-02-23T05:43:15;6.00;1.00
7014;DHT22;3547;50.774;12.918;2024-02-23T05:45:42;5.90;1.00
7014;DHT22;3547;50.774;12.918;2024-02-23T05:48:09;5.90;1.00
7014;DHT22;3547;50.774;12.918;2024-02-23T05:50:35;5.90;1.00
7014;DHT22;3547;50.774;12.918;2024-02-23T05:53:01;5.90;1.00
7014;DHT22;3547;50.774;12.918;2024-02-23T05:55:30;5.80;1.00
7014;DHT22;3547;50.774;12.918;2024-02-23T05:57:56;5.80;1.00
7014;DHT22;3547;50.774;12.918;2024-02-23T06:00:22;5.80;1.00
7014;DHT22;3547;50.774;12.918;2024-02-23T06:02:48;5.80;1.00
7014;DHT22;3547;50.774;12.918;2024-02-23T06:05:15;5.70;1.00
7014;DHT22;3547;50.774;12.918;2024-02-23T06:07:41;5.80;1.00
7014;DHT22;3547;50.774;12.918;2024-02-23T06:10:07;5.80;1.00
7014;DHT22;3547;50.774;12.918;2024-02-23T06:12:33;5.90;1.00
7014;DHT22;3547;50.774;12.918;2024-02-23T06:14:59;5.90;1.00
7014;DHT22;3547;50.774;12.918;2024-02-23T06:17:26;5.90;1.00
7014;DHT22;3547;50.774;12.918;2024-02-23T06:19:52;5.90;1.00
7014;DHT22;3547;50.774;12.918;2024-02-23T06:22:23;5.90;1.00
7014;DHT22;3547;50.774;12.918;2024-02-23T06:24:51;5.90;1.00
7014;DHT22;3547;50.774;12.918;2024-02-23T06:27:17;5.80;1.00
7014;DHT22;3547;50.774;12.918;2024-02-23T06:29:43;5.80;1.00
7014;DHT22;3547;50.774;12.918;2024-02-23T06:32:10;5.80;1.00
7014;DHT22;3547;50.774;12.918;2024-02-23T06:34:36;5.90;1.00
7014;DHT22;3547;50.774;12.918;2024-02-23T06:37:03;5.90;1.00
7014;DHT22;3547;50.774;12.918;2024-02-23T06:39:29;6.00;1.00
7014;DHT22;3547;50.774;12.918;2024-02-23T06:41:56;6.00;1.00
7014;DHT22;3547;50.774;12.918;2024-02-23T06:44:26;6.00;1.00
7014;DHT22;3547;50.774;12.918;2024-02-23T06:46:55;6.00;1.00
7014;DHT22;3547;50.774;12.918;2024-02-23T06:49:24;6.10;1.00
7014;DHT22;3547;50.774;12.918;2024-02-23T06:51:50;6.10;1.00
7014;DHT22;3547;50.774;12.918;2024-02-23T06:54:16;6.10;1.00
7014;DHT22;3547;50.774;12.918;2024-02-23T06:56:43;6.20;1.00
7014;DHT22;3547;50.774;12.918;2024-02-23T06:59:09;6.20;1.00
7014;DHT22;3547;50.774;12.918;2024-02-23T07:01:36;6.10;1.00
7014;DHT22;3547;50.774;12.918;2024-02-23T07:04:03;6.20;1.00
7014;DHT22;3547;50.774;12.918;2024-02-23T07:06:29;6.20;1.00
7014;DHT22;3547;50.774;12.918;2024-02-23T07:08:57;6.30;1.00
7014;DHT22;3547;50.774;12.918;2024-02-23T07:11:23;6.30;1.00
7014;DHT22;3547;50.774;12.918;2024-02-23T07:13:49;6.40;1.00
7014;DHT22;3547;50.774;12.918;2024-02-23T07:16:15;6.40;1.00
7014;DHT22;3547;50.774;12.918;2024-02-23T07:18:42;6.40;1.00
7014;DHT22;3547;50.774;12.918;2024-02-23T07:21:08;6.40;1.00
7014;DHT22;3547;50.774;12.918;2024-02-23T07:23:34;6.40;1.00
7014;DHT22;3547;50.774;12.918;2024-02-23T07:26:00;6.40;1.00
7014;DHT22;3547;50.774;12.918;2024-02-23T07:28:26;6.40;1.00
7014;DHT22;3547;50.774;12.918;2024-02-23T07:30:52;6.40;1.00
7014;DHT22;3547;50.774;12.918;2024-02-23T07:33:20;6.40;1.00
7014;DHT22;3547;50.774;12.918;2024-02-23T07:35:46;6.40;1.00
7014;DHT22;3547;50.774;12.918;2024-02-23T07:38:12;6.40;1.00
7014;DHT22;3547;50.774;12.918;2024-02-23T07:40:39;6.50;1.00
7014;DHT22;3547;50.774;12.918;2024-02-23T07:43:05;6.40;1.00
7014;DHT22;3547;50.774;12.918;2024-02-23T07:45:31;6.40;1.00
7014;DHT22;3547;50.774;12.918;2024-02-23T07:47:59;6.30;1.00
7014;DHT22;3547;50.774;12.918;2024-02-23T07:50:25;6.30;1.00
7014;DHT22;3547;50.774;12.918;2024-02-23T07:52:51;6.30;1.00
7014;DHT22;3547;50.774;12.918;2024-02-23T07:55:17;6.40;1.00
7014;DHT22;3547;50.774;12.918;2024-02-23T07:57:43;6.30;1.00
7014;DHT22;3547;50.774;12.918;2024-02-23T08:00:10;6.40;1.00
7014;DHT22;3547;50.774;12.918;2024-02-23T08:02:36;6.40;1.00
7014;DHT22;3547;50.774;12.918;2024-02-23T08:05:02;6.50;1.00
7014;DHT22;3547;50.774;12.918;2024-02-23T08:07:29;6.50;1.00
7014;DHT22;3547;50.774;12.918;2024-02-23T08:09:56;6.60;1.00
7014;DHT22;3547;50.774;12.918;2024-02-23T08:12:23;6.60;1.00
7014;DHT22;3547;50.774;12.918;2024-02-23T08:14:49;6.70;1.00
7014;DHT22;3547;50.774;12.918;2024-02-23T08:17:19;6.60;1.00
7014;DHT22;3547;50.774;12.918;2024-02-23T08:19:46;6.70;1.00
7014;DHT22;3547;50.774;12.918;2024-02-23T08:22:12;6.80;1.00
7014;DHT22;3547;50.774;12.918;2024-02-23T08:24:38;6.90;1.00
7014;DHT22;3547;50.774;12.918;2024-02-23T08:27:04;7.00;1.00
7014;DHT22;3547;50.774;12.918;2024-02-23T08:29:37;7.20;1.00
7014;DHT22;3547;50.774;12.918;2024-02-23T08:32:04;7.40;1.00
7014;DHT22;3547;50.774;12.918;2024-02-23T08:34:31;7.30;1.00
7014;DHT22;3547;50.774;12.918;2024-02-23T08:36:57;7.20;1.00
7014;DHT22;3547;50.774;12.918;2024-02-23T08:39:23;7.40;1.00
7014;DHT22;3547;50.774;12.918;2024-02-23T08:41:49;7.40;1.00
7014;DHT22;3547;50.774;12.918;2024-02-23T08:44:17;7.50;1.00
7014;DHT22;3547;50.774;12.918;2024-02-23T08:46:43;7.50;1.00
7014;DHT22;3547;50.774;12.918;2024-02-23T08:49:09;7.50;1.00
7014;DHT22;3547;50.774;12.918;2024-02-23T08:51:35;7.50;1.00
7014;DHT22;3547;50.774;12.918;2024-02-23T08:54:03;7.40;1.00
7014;DHT22;3547;50.774;12.918;2024-02-23T08:56:30;7.20;1.00
7014;DHT22;3547;50.774;12.918;2024-02-23T08:58:58;7.30;1.00
7014;DHT22;3547;50.774;12.918;2024-02-23T09:01:24;7.40;1.00
7014;DHT22;3547;50.774;12.918;2024-02-23T09:03:50;7.60;1.00
7014;DHT22;3547;50.774;12.918;2024-02-23T09:06:16;7.50;1.00
7014;DHT22;3547;50.774;12.918;2024-02-23T09:08:42;7.70;1.00
7014;DHT22;3547;50.774;12.918;2024-02-23T09:11:11;7.80;1.00
7014;DHT22;3547;50.774;12.918;2024-02-23T09:13:39;7.70;1.00
7014;DHT22;3547;50.774;12.918;2024-02-23T09:16:07;7.40;1.00
7014;DHT22;3547;50.774;12.918;2024-02-23T09:18:35;7.30;1.00
7014;DHT22;3547;50.774;12.918;2024-02-23T09:21:01;7.40;1.00
7014;DHT22;3547;50.774;12.918;2024-02-23T09:23:27;7.70;1.00
7014;DHT22;3547;50.774;12.918;2024-02-23T09:25:53;7.90;1.00
7014;DHT22;3547;50.774;12.918;2024-02-23T09:28:19;8.10;1.00
7014;DHT22;3547;50.774;12.918;2024-02-23T09:30:46;8.20;1.00
7014;DHT22;3547;50.774;12.918;2024-02-23T09:33:12;8.30;1.00
7014;DHT22;3547;50.774;12.918;2024-02-23T09:35:38;8.00;1.00
7014;DHT22;3547;50.774;12.918;2024-02-23T09:38:05;8.10;1.00
7014;DHT22;3547;50.774;12.918;2024-02-23T09:40:34;8.20;1.00
7014;DHT22;3547;50.774;12.918;2024-02-23T09:43:01;8.30;1.00
7014;DHT22;3547;50.774;12.918;2024-02-23T09:45:28;8.50;1.00
7014;DHT22;3547;50.774;12.918;2024-02-23T09:47:57;8.40;1.00
7014;DHT22;3547;50.774;12.918;2024-02-23T09:50:24;8.50;1.00
7014;DHT22;3547;50.774;12.918;2024-02-23T09:52:50;8.30;1.00
7014;DHT22;3547;50.774;12.918;2024-02-23T09:55:17;8.50;1.00
7014;DHT22;3547;50.774;12.918;2024-02-23T09:57:45;8.70;1.00
7014;DHT22;3547;50.774;12.918;2024-02-23T10:00:12;8.90;1.00
7014;DHT22;3547;50.774;12.918;2024-02-23T10:02:39;8.90;1.00
7014;DHT22;3547;50.774;12.918;2024-02-23T10:05:07;8.90;1.00
7014;DHT22;3547;50.774;12.918;2024-02-23T10:07:33;8.70;1.00
7014;DHT22;3547;50.774;12.918;2024-02-23T10:10:00;8.80;1.00
7014;DHT22;3547;50.774;12.918;2024-02-23T10:12:27;8.50;1.00
7014;DHT22;3547;50.774;12.918;2024-02-23T10:14:53;8.40;1.00
7014;DHT22;3547;50.774;12.918;2024-02-23T10:17:20;8.40;1.00
7014;DHT22;3547;50.774;12.918;2024-02-23T10:19:46;8.80;1.00
7014;DHT22;3547;50.774;12.918;2024-02-23T10:22:14;9.00;1.00
7014;DHT22;3547;50.774;12.918;2024-02-23T10:24:42;9.10;1.00
7014;DHT22;3547;50.774;12.918;2024-02-23T10:27:08;8.70;1.00
7014;DHT22;3547;50.774;12.918;2024-02-23T10:29:35;8.20;1.00
7014;DHT22;3547;50.774;12.918;2024-02-23T10:32:01;7.90;1.00
7014;DHT22;3547;50.774;12.918;2024-02-23T10:34:29;8.20;1.00
7014;DHT22;3547;50.774;12.918;2024-02-23T10:36:57;8.10;1.00
7014;DHT22;3547;50.774;12.918;2024-02-23T10:39:24;8.20;1.00
7014;DHT22;3547;50.774;12.918;2024-02-23T10:41:57;8.10;1.00
7014;DHT22;3547;50.774;12.918;2024-02-23T10:44:24;8.10;1.00
7014;DHT22;3547;50.774;12.918;2024-02-23T10:46:53;7.90;1.00
7014;DHT22;3547;50.774;12.918;2024-02-23T10:49:23;8.20;1.00
7014;DHT22;3547;50.774;12.918;2024-02-23T10:51:53;7.80;1.00
7014;DHT22;3547;50.774;12.918;2024-02-23T10:54:20;8.10;1.00
7014;DHT22;3547;50.774;12.918;2024-02-23T10:56:49;8.30;1.00
7014;DHT22;3547;50.774;12.918;2024-02-23T10:59:18;8.50;1.00
7014;DHT22;3547;50.774;12.918;2024-02-23T11:01:47;8.40;1.00
7014;DHT22;3547;50.774;12.918;2024-02-23T11:04:16;8.50;1.00
7014;DHT22;3547;50.774;12.918;2024-02-23T11:06:48;8.50;1.00
7014;DHT22;3547;50.774;12.918;2024-02-23T11:09:15;8.80;1.00
7014;DHT22;3547;50.774;12.918;2024-02-23T11:11:54;8.80;1.00
7014;DHT22;3547;50.774;12.918;2024-02-23T11:17:50;8.20;1.00
7014;DHT22;3547;50.774;12.918;2024-02-23T11:20:16;8.20;1.00
7014;DHT22;3547;50.774;12.918;2024-02-23T11:22:42;8.50;1.00
7014;DHT22;3547;50.774;12.918;2024-02-23T11:25:09;8.70;1.00
7014;DHT22;3547;50.774;12.918;2024-02-23T11:27:40;8.70;1.00
7014;DHT22;3547;50.774;12.918;2024-02-23T11:30:09;8.70;1.00
7014;DHT22;3547;50.774;12.918;2024-02-23T11:32:45;8.90;1.00
7014;DHT22;3547;50.774;12.918;2024-02-23T11:35:17;8.70;1.00
7014;DHT22;3547;50.774;12.918;2024-02-23T11:37:48;9.00;1.00
7014;DHT22;3547;50.774;12.918;2024-02-23T11:40:17;9.10;1.00
7014;DHT22;3547;50.774;12.918;2024-02-23T11:42:43;9.10;1.00
7014;DHT22;3547;50.774;12.918;2024-02-23T11:45:10;8.80;1.00
7014;DHT22;3547;50.774;12.918;2024-02-23T11:47:37;9.10;1.00
7014;DHT22;3547;50.774;12.918;2024-02-23T11:50:08;9.20;1.00
7014;DHT22;3547;50.774;12.918;2024-02-23T11:52:34;9.20;1.00
7014;DHT22;3547;50.774;12.918;2024-02-23T11:55:00;9.20;1.00
7014;DHT22;3547;50.774;12.918;2024-02-23T11:57:26;9.00;1.00
7014;DHT22;3547;50.774;12.918;2024-02-23T11:59:53;8.90;1.00
7014;DHT22;3547;50.774;12.918;2024-02-23T12:02:19;8.60;1.00
7014;DHT22;3547;50.774;12.918;2024-02-23T12:04:45;8.40;1.00
7014;DHT22;3547;50.774;12.918;2024-02-23T12:07:12;8.50;1.00
7014;DHT22;3547;50.774;12.918;2024-02-23T12:09:40;8.30;1.00
7014;DHT22;3547;50.774;12.918;2024-02-23T12:12:07;8.50;1.00
7014;DHT22;3547;50.774;12.918;2024-02-23T12:14:36;8.80;1.00
7014;DHT22;3547;50.774;12.918;2024-02-23T12:17:02;8.90;1.00
7014;DHT22;3547;50.774;12.918;2024-02-23T12:19:32;9.10;1.00
7014;DHT22;3547;50.774;12.918;2024-02-23T12:22:02;9.20;1.00
7014;DHT22;3547;50.774;12.918;2024-02-23T12:24:29;9.20;1.00
7014;DHT22;3547;50.774;12.918;2024-02-23T12:26:56;9.30;1.00
7014;DHT22;3547;50.774;12.918;2024-02-23T12:29:23;9.30;1.00
7014;DHT22;3547;50.774;12.918;2024-02-23T12:31:49;9.40;1.00
7014;DHT22;3547;50.774;12.918;2024-02-23T12:34:16;9.40;1.00
7014;DHT22;3547;50.774;12.918;2024-02-23T12:36:43;9.40;1.00
7014;DHT22;3547;50.774;12.918;2024-02-23T12:39:09;9.40;1.00
7014;DHT22;3547;50.774;12.918;2024-02-23T12:41:35;9.40;1.00
7014;DHT22;3547;50.774;12.918;2024-02-23T12:44:01;9.40;1.00
7014;DHT22;3547;50.774;12.918;2024-02-23T12:46:27;9.40;1.00
7014;DHT22;3547;50.774;12.918;2024-02-23T12:48:53;9.40;1.00
7014;DHT22;3547;50.774;12.918;2024-02-23T12:51:25;9.30;1.00
7014;DHT22;3547;50.774;12.918;2024-02-23T12:53:52;9.20;1.00
7014;DHT22;3547;50.774;12.918;2024-02-23T12:56:18;9.20;1.00
7014;DHT22;3547;50.774;12.918;2024-02-23T12:58:45;9.10;1.00
7014;DHT22;3547;50.774;12.918;2024-02-23T13:01:12;9.10;1.00
7014;DHT22;3547;50.774;12.918;2024-02-23T13:03:39;9.00;1.00
7014;DHT22;3547;50.774;12.918;2024-02-23T13:06:08;9.00;1.00
7014;DHT22;3547;50.774;12.918;2024-02-23T13:08:35;8.90;1.00
7014;DHT22;3547;50.774;12.918;2024-02-23T13:11:01;8.90;1.00
7014;DHT22;3547;50.774;12.918;2024-02-23T13:13:27;8.90;1.00
7014;DHT22;3547;50.774;12.918;2024-02-23T13:15:55;8.90;1.00
7014;DHT22;3547;50.774;12.918;2024-02-23T13:18:22;8.90;1.00
7014;DHT22;3547;50.774;12.918;2024-02-23T13:20:49;8.70;1.00
7014;DHT22;3547;50.774;12.918;2024-02-23T13:23:15;8.70;1.00
7014;DHT22;3547;50.774;12.918;2024-02-23T13:25:42;8.60;1.00
7014;DHT22;3547;50.774;12.918;2024-02-23T13:28:09;8.60;1.00
7014;DHT22;3547;50.774;12.918;2024-02-23T13:30:36;8.60;1.00
7014;DHT22;3547;50.774;12.918;2024-02-23T13:33:03;8.60;1.00
7014;DHT22;3547;50.774;12.918;2024-02-23T13:35:29;8.60;1.00
7014;DHT22;3547;50.774;12.918;2024-02-23T13:37:55;8.60;1.00
7014;DHT22;3547;50.774;12.918;2024-02-23T13:40:23;8.60;1.00
7014;DHT22;3547;50.774;12.918;2024-02-23T13:42:49;8.60;1.00
7014;DHT22;3547;50.774;12.918;2024-02-23T13:45:16;8.60;1.00
7014;DHT22;3547;50.774;12.918;2024-02-23T13:47:55;8.50;1.00
7014;DHT22;3547;50.774;12.918;2024-02-23T13:50:22;8.50;1.00
7014;DHT22;3547;50.774;12.918;2024-02-23T13:52:48;8.50;1.00
7014;DHT22;3547;50.774;12.918;2024-02-23T13:55:14;8.50;1.00
7014;DHT22;3547;50.774;12.918;2024-02-23T13:57:40;8.50;1.00
7014;DHT22;3547;50.774;12.918;2024-02-23T14:00:07;8.50;1.00
7014;DHT22;3547;50.774;12.918;2024-02-23T14:02:38;8.50;1.00
7014;DHT22;3547;50.774;12.918;2024-02-23T14:05:06;8.40;1.00
7014;DHT22;3547;50.774;12.918;2024-02-23T14:07:33;8.40;1.00
7014;DHT22;3547;50.774;12.918;2024-02-23T14:09:59;8.40;1.00
7014;DHT22;3547;50.774;12.918;2024-02-23T14:12:26;8.30;1.00
7014;DHT22;3547;50.774;12.918;2024-02-23T14:14:55;8.30;1.00
7014;DHT22;3547;50.774;12.918;2024-02-23T14:17:21;8.30;1.00
7014;DHT22;3547;50.774;12.918;2024-02-23T14:19:47;8.30;1.00
7014;DHT22;3547;50.774;12.918;2024-02-23T14:22:13;8.30;1.00
7014;DHT22;3547;50.774;12.918;2024-02-23T14:24:40;8.30;1.00
7014;DHT22;3547;50.774;12.918;2024-02-23T14:27:06;8.20;1.00
7014;DHT22;3547;50.774;12.918;2024-02-23T14:29:33;8.10;1.00
7014;DHT22;3547;50.774;12.918;2024-02-23T14:31:59;8.00;1.00
7014;DHT22;3547;50.774;12.918;2024-02-23T14:34:27;8.00;1.00
7014;DHT22;3547;50.774;12.918;2024-02-23T14:36:53;8.00;1.00
7014;DHT22;3547;50.774;12.918;2024-02-23T14:39:19;8.00;1.00
7014;DHT22;3547;50.774;12.918;2024-02-23T14:41:47;7.90;1.00
7014;DHT22;3547;50.774;12.918;2024-02-23T14:44:14;7.90;1.00
7014;DHT22;3547;50.774;12.918;2024-02-23T14:46:40;7.90;1.00
7014;DHT22;3547;50.774;12.918;2024-02-23T14:49:07;7.90;1.00
7014;DHT22;3547;50.774;12.918;2024-02-23T14:51:33;7.80;1.00
7014;DHT22;3547;50.774;12.918;2024-02-23T14:54:01;7.70;1.00
7014;DHT22;3547;50.774;12.918;2024-02-23T14:56:28;7.70;1.00
7014;DHT22;3547;50.774;12.918;2024-02-23T14:58:54;7.60;1.00
7014;DHT22;3547;50.774;12.918;2024-02-23T15:01:20;7.50;1.00
7014;DHT22;3547;50.774;12.918;2024-02-23T15:03:47;7.50;1.00
7014;DHT22;3547;50.774;12.918;2024-02-23T15:06:13;7.50;1.00
7014;DHT22;3547;50.774;12.918;2024-02-23T15:08:39;7.50;1.00
7014;DHT22;3547;50.774;12.918;2024-02-23T15:11:06;7.40;1.00
7014;DHT22;3547;50.774;12.918;2024-02-23T15:13:32;7.30;1.00
7014;DHT22;3547;50.774;12.918;2024-02-23T15:15:58;7.30;1.00
7014;DHT22;3547;50.774;12.918;2024-02-23T15:18:25;7.30;1.00
7014;DHT22;3547;50.774;12.918;2024-02-23T15:20:51;7.30;1.00
7014;DHT22;3547;50.774;12.918;2024-02-23T15:23:18;7.30;1.00
7014;DHT22;3547;50.774;12.918;2024-02-23T15:25:44;7.30;1.00
7014;DHT22;3547;50.774;12.918;2024-02-23T15:28:10;7.30;1.00
7014;DHT22;3547;50.774;12.918;2024-02-23T15:30:36;7.20;1.00
7014;DHT22;3547;50.774;12.918;2024-02-23T15:33:02;7.20;1.00
7014;DHT22;3547;50.774;12.918;2024-02-23T15:35:29;7.30;1.00
7014;DHT22;3547;50.774;12.918;2024-02-23T15:37:55;7.20;1.00
7014;DHT22;3547;50.774;12.918;2024-02-23T15:40:21;7.20;1.00
7014;DHT22;3547;50.774;12.918;2024-02-23T15:42:48;7.20;1.00
7014;DHT22;3547;50.774;12.918;2024-02-23T15:45:16;7.00;1.00
7014;DHT22;3547;50.774;12.918;2024-02-23T15:47:43;7.00;1.00
7014;DHT22;3547;50.774;12.918;2024-02-23T15:50:09;7.00;1.00
7014;DHT22;3547;50.774;12.918;2024-02-23T15:52:35;6.90;1.00
7014;DHT22;3547;50.774;12.918;2024-02-23T15:55:01;6.90;1.00
7014;DHT22;3547;50.774;12.918;2024-02-23T15:57:28;6.80;1.00
7014;DHT22;3547;50.774;12.918;2024-02-23T15:59:54;6.80;1.00
7014;DHT22;3547;50.774;12.918;2024-02-23T16:02:21;6.70;1.00
7014;DHT22;3547;50.774;12.918;2024-02-23T16:04:48;6.60;1.00
7014;DHT22;3547;50.774;12.918;2024-02-23T16:07:14;6.60;1.00
7014;DHT22;3547;50.774;12.918;2024-02-23T16:09:41;6.60;1.00
7014;DHT22;3547;50.774;12.918;2024-02-23T16:12:07;6.50;1.00
7014;DHT22;3547;50.774;12.918;2024-02-23T16:14:33;6.50;1.00
7014;DHT22;3547;50.774;12.918;2024-02-23T16:16:59;6.50;1.00
7014;DHT22;3547;50.774;12.918;2024-02-23T16:19:26;6.40;1.00
7014;DHT22;3547;50.774;12.918;2024-02-23T16:21:52;6.40;1.00
7014;DHT22;3547;50.774;12.918;2024-02-23T16:24:18;6.40;1.00